Time;durP1;ratioP1;P1;durP2;ratioP2;P2;SDS_P1;SDS_P2;PMS_P1;PMS_P2;Temp;Humidity;BMP_temperature;BMP_pressure;BME280_temperature;BME280_humidity;BME280_pressure;Samples;Min_cycle;Max_cycle;Signal;HPM_P1;HPM_P2
2022/03/06 00:01:41;;;;;;;64.60;30.63;;;4.00;99.90;;;;;;5048862;28;20424;-77
2022/03/06 00:04:06;;;;;;;64.22;30.45;;;4.00;99.90;;;;;;5034441;28;20017;-77
2022/03/06 00:06:32;;;;;;;57.85;28.83;;;3.90;99.90;;;;;;5049639;28;20025;-77
2022/03/06 00:08:58;;;;;;;52.88;27.45;;;3.90;99.90;;;;;;5037901;28;20056;-77
2022/03/06 00:11:23;;;;;;;59.15;30.95;;;3.90;99.90;;;;;;5040873;28;20030;-77
2022/03/06 00:13:50;;;;;;;61.80;29.90;;;3.90;99.90;;;;;;5028344;28;20025;-77
2022/03/06 00:16:16;;;;;;;61.47;28.58;;;3.90;99.90;;;;;;5035218;28;20396;-77
2022/03/06 00:18:41;;;;;;;55.63;28.52;;;3.90;99.90;;;;;;5034207;28;20018;-76
2022/03/06 00:21:09;;;;;;;60.15;29.08;;;3.80;99.90;;;;;;5027929;28;20378;-77
2022/03/06 00:23:34;;;;;;;60.72;29.50;;;3.80;99.90;;;;;;5038566;28;20036;-77
2022/03/06 00:26:00;;;;;;;58.28;28.38;;;3.80;99.90;;;;;;5023364;28;20030;-77
2022/03/06 00:28:25;;;;;;;57.00;27.63;;;3.80;99.90;;;;;;5029933;28;20029;-77
2022/03/06 00:30:51;;;;;;;57.90;27.80;;;3.70;99.90;;;;;;5039184;28;20033;-77
2022/03/06 00:33:17;;;;;;;62.78;28.20;;;3.70;99.90;;;;;;5022910;28;20159;-77
2022/03/06 00:35:42;;;;;;;57.17;30.10;;;3.60;99.90;;;;;;5042496;28;20056;-77
2022/03/06 00:38:08;;;;;;;57.47;27.08;;;3.70;99.90;;;;;;5034732;28;20095;-77
2022/03/06 00:40:34;;;;;;;56.47;26.77;;;3.70;99.90;;;;;;5032405;28;20029;-77
2022/03/06 00:42:59;;;;;;;57.15;26.40;;;3.70;99.90;;;;;;5034530;28;20010;-77
2022/03/06 00:45:25;;;;;;;52.92;26.02;;;3.60;99.90;;;;;;5029920;28;20068;-78
2022/03/06 00:47:50;;;;;;;58.60;27.65;;;3.60;99.90;;;;;;5046008;28;20405;-76
2022/03/06 00:50:16;;;;;;;57.72;27.02;;;3.60;99.90;;;;;;5040009;28;20454;-76
2022/03/06 00:52:42;;;;;;;58.83;28.52;;;3.60;99.90;;;;;;5034750;28;20022;-76
2022/03/06 00:55:08;;;;;;;59.00;27.08;;;3.50;99.90;;;;;;5026298;28;20037;-76
2022/03/06 00:57:34;;;;;;;56.70;27.27;;;3.60;99.90;;;;;;5038406;28;20029;-76
2022/03/06 00:59:59;;;;;;;54.90;25.38;;;3.50;99.90;;;;;;5027424;28;20021;-76
2022/03/06 01:02:26;;;;;;;52.35;25.90;;;3.50;99.90;;;;;;5037156;28;20403;-76
2022/03/06 01:04:51;;;;;;;59.17;26.65;;;3.40;99.90;;;;;;5031694;28;20063;-76
2022/03/06 01:07:17;;;;;;;59.03;27.38;;;3.40;99.90;;;;;;5034689;28;20473;-76
2022/03/06 01:09:43;;;;;;;55.25;26.30;;;3.40;99.90;;;;;;5031132;28;20025;-76
2022/03/06 01:12:09;;;;;;;50.75;27.17;;;3.40;99.90;;;;;;5035390;28;20083;-76
2022/03/06 01:14:34;;;;;;;54.40;27.83;;;3.30;99.90;;;;;;5044255;28;20025;-76
2022/03/06 01:17:00;;;;;;;58.33;26.50;;;3.30;99.90;;;;;;5027156;28;20061;-76
2022/03/06 01:19:25;;;;;;;54.83;27.42;;;3.30;99.90;;;;;;5035263;28;20033;-76
2022/03/06 01:21:51;;;;;;;49.22;25.20;;;3.30;99.90;;;;;;5033081;28;20025;-77
2022/03/06 01:24:17;;;;;;;60.85;27.70;;;3.30;99.90;;;;;;5035929;28;20065;-76
2022/03/06 01:26:42;;;;;;;51.22;25.90;;;3.20;99.90;;;;;;5039348;28;20025;-76
2022/03/06 01:29:08;;;;;;;54.88;25.23;;;3.20;99.90;;;;;;5028731;28;20032;-76
2022/03/06 01:31:34;;;;;;;55.70;26.40;;;3.20;99.90;;;;;;5040284;28;20025;-76
2022/03/06 01:34:02;;;;;;;56.08;28.25;;;3.10;99.90;;;;;;5048242;28;20434;-76
2022/03/06 01:36:28;;;;;;;56.13;26.98;;;3.10;99.90;;;;;;5033515;28;20485;-76
2022/03/06 01:38:54;;;;;;;58.42;29.23;;;3.10;99.90;;;;;;5030600;28;20021;-76
2022/03/06 01:41:19;;;;;;;54.58;26.02;;;3.10;99.90;;;;;;5033291;28;20021;-76
2022/03/06 01:43:45;;;;;;;56.88;26.15;;;3.10;99.90;;;;;;5031039;28;20284;-76
2022/03/06 01:46:13;;;;;;;55.15;27.42;;;3.10;99.90;;;;;;5029937;28;20026;-76
2022/03/06 01:48:38;;;;;;;53.30;26.65;;;3.00;99.90;;;;;;5033030;28;20044;-76
2022/03/06 01:51:04;;;;;;;55.60;28.42;;;3.00;99.90;;;;;;5030544;28;20029;-77
2022/03/06 01:53:29;;;;;;;52.30;26.23;;;2.90;99.90;;;;;;5026401;28;20022;-76
2022/03/06 01:55:55;;;;;;;56.05;26.45;;;2.90;99.90;;;;;;5040147;28;20033;-76
2022/03/06 01:58:21;;;;;;;53.78;25.75;;;3.00;99.90;;;;;;5043029;28;20082;-75
2022/03/06 02:00:49;;;;;;;53.92;24.63;;;2.90;99.90;;;;;;5040404;28;20037;-76
2022/03/06 02:03:16;;;;;;;49.47;24.65;;;2.90;99.90;;;;;;5027806;28;20131;-76
2022/03/06 02:05:42;;;;;;;55.50;26.77;;;2.90;99.90;;;;;;5036547;28;20025;-76
2022/03/06 02:08:08;;;;;;;48.35;25.02;;;2.80;99.90;;;;;;5025525;28;20032;-76
2022/03/06 02:10:35;;;;;;;60.58;27.50;;;2.80;99.90;;;;;;5046581;28;20060;-76
2022/03/06 02:13:00;;;;;;;52.35;26.17;;;2.80;99.90;;;;;;5039529;28;20458;-76
2022/03/06 02:15:26;;;;;;;52.42;26.83;;;2.80;99.90;;;;;;5034575;28;20041;-76
2022/03/06 02:17:51;;;;;;;51.85;24.00;;;2.80;99.90;;;;;;5034507;28;20083;-76
2022/03/06 02:20:23;;;;;;;53.80;24.95;;;2.80;99.90;;;;;;5032786;28;20032;-76
2022/03/06 02:22:54;;;;;;;58.65;25.17;;;2.80;99.90;;;;;;5029281;28;20148;-76
2022/03/06 02:25:34;;;;;;;55.30;26.23;;;2.70;99.90;;;;;;5036868;28;20030;-76
2022/03/06 02:28:03;;;;;;;52.95;25.85;;;2.70;99.90;;;;;;5030815;28;20037;-76
2022/03/06 02:30:31;;;;;;;47.45;24.48;;;2.70;99.90;;;;;;5032330;28;20033;-76
2022/03/06 02:32:58;;;;;;;48.30;23.45;;;2.80;99.90;;;;;;5028158;28;20026;-76
2022/03/06 02:35:25;;;;;;;55.95;25.15;;;2.70;99.90;;;;;;5037331;28;20036;-76
2022/03/06 02:37:51;;;;;;;49.45;24.25;;;2.60;99.90;;;;;;5045121;28;20363;-76
2022/03/06 02:40:18;;;;;;;50.75;25.60;;;2.60;99.90;;;;;;5028515;28;20064;-76
2022/03/06 02:42:45;;;;;;;50.42;25.10;;;2.60;99.90;;;;;;5034820;28;20028;-77
2022/03/06 02:45:17;;;;;;;50.58;24.95;;;2.50;99.90;;;;;;5038965;28;20137;-76
2022/03/06 02:47:44;;;;;;;56.50;26.13;;;2.50;99.90;;;;;;5042779;28;20040;-76
2022/03/06 02:50:16;;;;;;;53.50;26.20;;;2.40;99.90;;;;;;5027363;28;20029;-77
2022/03/06 02:52:41;;;;;;;55.92;26.52;;;2.40;99.90;;;;;;5041543;28;20025;-76
2022/03/06 02:55:09;;;;;;;53.03;27.15;;;2.40;99.90;;;;;;5040448;28;20117;-77
2022/03/06 02:57:35;;;;;;;53.67;27.23;;;2.40;99.90;;;;;;5037753;28;20025;-77
2022/03/06 03:00:01;;;;;;;59.80;27.90;;;2.50;99.90;;;;;;5027644;28;20036;-76
2022/03/06 03:02:27;;;;;;;55.08;28.23;;;2.50;99.90;;;;;;5041073;28;20040;-76
2022/03/06 03:04:53;;;;;;;53.28;27.45;;;2.50;99.90;;;;;;5039456;28;20022;-76
2022/03/06 03:07:18;;;;;;;54.67;26.58;;;2.50;99.90;;;;;;5032229;28;20037;-76
2022/03/06 03:09:44;;;;;;;55.38;25.42;;;2.50;99.90;;;;;;5034617;28;20057;-76
2022/03/06 03:12:10;;;;;;;54.10;26.15;;;2.50;99.90;;;;;;5053345;28;20032;-76
2022/03/06 03:14:36;;;;;;;55.28;24.17;;;2.50;99.90;;;;;;5038854;28;20021;-76
2022/03/06 03:17:03;;;;;;;53.17;24.67;;;2.40;99.90;;;;;;5032410;28;20032;-77
2022/03/06 03:19:29;;;;;;;50.00;24.42;;;2.40;99.90;;;;;;5037766;28;20025;-76
2022/03/06 03:21:55;;;;;;;53.38;26.23;;;2.40;99.90;;;;;;5031660;28;20035;-76
2022/03/06 03:24:21;;;;;;;57.13;27.23;;;2.40;99.90;;;;;;5040409;28;20025;-76
2022/03/06 03:26:47;;;;;;;52.78;26.58;;;2.40;99.90;;;;;;5028607;28;20444;-76
2022/03/06 03:29:13;;;;;;;56.72;26.85;;;2.40;99.90;;;;;;5031256;28;20524;-76
2022/03/06 03:31:38;;;;;;;56.55;27.30;;;2.40;99.90;;;;;;5036027;28;20029;-76
2022/03/06 03:34:04;;;;;;;55.72;27.15;;;2.40;99.90;;;;;;5045799;28;20068;-75
2022/03/06 03:36:30;;;;;;;56.53;26.80;;;2.50;99.90;;;;;;5026528;28;20029;-76
2022/03/06 03:38:55;;;;;;;53.88;27.27;;;2.40;99.90;;;;;;5039364;28;20014;-75
2022/03/06 03:41:23;;;;;;;54.20;27.58;;;2.40;99.90;;;;;;5033189;28;20494;-75
2022/03/06 03:43:49;;;;;;;57.60;25.88;;;2.40;99.90;;;;;;5028171;28;20065;-75
2022/03/06 03:46:15;;;;;;;54.50;28.27;;;2.40;99.90;;;;;;5046723;28;20031;-75
2022/03/06 03:48:40;;;;;;;52.67;27.17;;;2.40;99.90;;;;;;5032713;28;20029;-75
2022/03/06 03:51:06;;;;;;;51.33;26.83;;;2.40;99.90;;;;;;5035998;28;20505;-75
2022/03/06 03:53:32;;;;;;;53.67;28.10;;;2.30;99.90;;;;;;5040658;28;20021;-75
2022/03/06 03:55:57;;;;;;;55.92;26.98;;;2.30;99.90;;;;;;5042742;28;20117;-75
2022/03/06 03:58:23;;;;;;;56.90;26.55;;;2.30;99.90;;;;;;5035247;28;20030;-76
2022/03/06 04:00:52;;;;;;;54.47;26.92;;;2.30;99.90;;;;;;5030068;28;20033;-76
2022/03/06 04:03:17;;;;;;;52.90;26.98;;;2.30;99.90;;;;;;5035874;28;20028;-75
2022/03/06 04:05:43;;;;;;;56.67;25.67;;;2.30;99.90;;;;;;5033692;28;20025;-75
2022/03/06 04:08:08;;;;;;;54.53;25.88;;;2.20;99.90;;;;;;5039818;28;20100;-76
2022/03/06 04:10:34;;;;;;;58.95;26.98;;;2.20;99.90;;;;;;5027336;28;20037;-75
2022/03/06 04:13:00;;;;;;;55.63;27.33;;;2.20;99.90;;;;;;5029004;28;20036;-76
2022/03/06 04:15:25;;;;;;;51.53;24.77;;;2.10;99.90;;;;;;5040467;28;20025;-75
2022/03/06 04:17:51;;;;;;;57.95;26.67;;;2.20;99.90;;;;;;5029004;28;20030;-75
2022/03/06 04:20:16;;;;;;;56.92;26.20;;;2.20;99.90;;;;;;5039872;28;20021;-75
2022/03/06 04:22:42;;;;;;;52.45;25.52;;;2.10;99.90;;;;;;5028777;28;20537;-75
2022/03/06 04:25:08;;;;;;;51.20;24.85;;;2.10;99.90;;;;;;5036758;28;20025;-75
2022/03/06 04:27:33;;;;;;;55.60;26.05;;;2.20;99.90;;;;;;5038514;28;20108;-75
2022/03/06 04:29:59;;;;;;;49.90;24.90;;;2.10;99.90;;;;;;5030236;28;20381;-76
2022/03/06 04:32:24;;;;;;;51.83;24.90;;;2.10;99.90;;;;;;5033229;28;20025;-75
2022/03/06 04:34:51;;;;;;;53.92;26.52;;;2.10;99.90;;;;;;5033201;28;20032;-75
2022/03/06 04:37:16;;;;;;;53.58;25.30;;;2.10;99.90;;;;;;5039136;28;20029;-75
2022/03/06 04:39:42;;;;;;;49.92;23.95;;;2.10;99.90;;;;;;5029697;28;20025;-75
2022/03/06 04:42:07;;;;;;;55.92;27.05;;;2.10;99.90;;;;;;5032605;28;20064;-76
2022/03/06 04:44:33;;;;;;;55.72;26.15;;;2.10;99.90;;;;;;5036931;28;20026;-76
2022/03/06 04:46:59;;;;;;;51.50;24.45;;;2.10;99.90;;;;;;5032593;28;20048;-76
2022/03/06 04:49:24;;;;;;;56.80;25.50;;;2.10;99.90;;;;;;5037748;28;20396;-76
2022/03/06 04:51:50;;;;;;;53.90;26.52;;;2.10;99.90;;;;;;5028594;28;20025;-76
2022/03/06 04:54:16;;;;;;;51.80;27.33;;;2.10;99.90;;;;;;5041049;28;20029;-75
2022/03/06 04:56:42;;;;;;;52.83;26.35;;;2.10;99.90;;;;;;5027379;28;20423;-76
2022/03/06 04:59:07;;;;;;;57.88;25.83;;;2.10;99.90;;;;;;5039543;28;20029;-75
2022/03/06 05:01:33;;;;;;;57.53;26.48;;;2.10;99.90;;;;;;5025865;28;20037;-75
2022/03/06 05:04:00;;;;;;;50.20;25.45;;;2.00;99.90;;;;;;5035266;28;20109;-75
2022/03/06 05:06:26;;;;;;;49.75;25.80;;;2.00;99.90;;;;;;5032634;28;20111;-77
2022/03/06 05:08:52;;;;;;;52.17;25.88;;;2.00;99.90;;;;;;5029584;28;20484;-76
2022/03/06 05:11:17;;;;;;;52.63;25.63;;;2.00;99.90;;;;;;5037569;28;20048;-76
2022/03/06 05:13:43;;;;;;;54.45;26.73;;;2.00;99.90;;;;;;5029031;28;20033;-76
2022/03/06 05:16:09;;;;;;;52.00;25.55;;;1.90;99.90;;;;;;5037308;28;20045;-76
2022/03/06 05:18:35;;;;;;;54.42;26.20;;;1.90;99.90;;;;;;5028192;28;20017;-75
2022/03/06 05:21:01;;;;;;;51.45;25.73;;;1.90;99.90;;;;;;5038230;28;20024;-75
2022/03/06 05:23:27;;;;;;;52.97;25.15;;;1.90;99.90;;;;;;5026053;28;20048;-76
2022/03/06 05:25:54;;;;;;;58.15;27.13;;;1.90;99.90;;;;;;5026638;28;20466;-75
2022/03/06 05:28:21;;;;;;;55.38;26.48;;;1.90;99.90;;;;;;5021664;28;20021;-76
2022/03/06 05:30:47;;;;;;;56.88;27.50;;;1.80;99.90;;;;;;5039905;28;20462;-76
2022/03/06 05:33:13;;;;;;;53.90;24.98;;;1.80;99.90;;;;;;5028676;28;20088;-75
2022/03/06 05:35:39;;;;;;;51.13;25.02;;;1.90;99.90;;;;;;5032533;28;20034;-76
2022/03/06 05:38:04;;;;;;;55.45;27.05;;;1.80;99.90;;;;;;5044943;28;20231;-75
2022/03/06 05:40:30;;;;;;;52.35;25.13;;;1.80;99.90;;;;;;5021904;28;20033;-75
2022/03/06 05:42:55;;;;;;;50.85;22.85;;;1.70;99.90;;;;;;5038893;28;20017;-75
2022/03/06 05:45:21;;;;;;;52.13;25.00;;;1.70;99.90;;;;;;5021232;28;20117;-75
2022/03/06 05:47:47;;;;;;;49.92;26.88;;;1.70;99.90;;;;;;5039397;28;20032;-75
2022/03/06 05:50:13;;;;;;;55.25;27.52;;;1.70;99.90;;;;;;5037207;28;20021;-75
2022/03/06 05:52:39;;;;;;;58.00;28.33;;;1.70;99.90;;;;;;5037952;28;20086;-76
2022/03/06 05:55:06;;;;;;;49.53;25.35;;;1.70;99.90;;;;;;5029700;28;20029;-77
2022/03/06 05:57:32;;;;;;;48.13;25.23;;;1.70;99.90;;;;;;5050705;28;20022;-75
2022/03/06 05:59:57;;;;;;;57.65;27.73;;;1.70;99.90;;;;;;5028862;28;20082;-76
2022/03/06 06:02:23;;;;;;;51.78;26.52;;;1.60;99.90;;;;;;5043237;28;20048;-76
2022/03/06 06:04:49;;;;;;;52.75;25.25;;;1.60;99.90;;;;;;5029848;28;20088;-76
2022/03/06 06:07:15;;;;;;;48.10;24.73;;;1.60;99.90;;;;;;5042356;28;20021;-76
2022/03/06 06:09:41;;;;;;;52.88;25.48;;;1.60;99.90;;;;;;5028595;28;20029;-75
2022/03/06 06:12:07;;;;;;;50.50;23.45;;;1.60;99.90;;;;;;5041773;28;20458;-76
2022/03/06 06:14:33;;;;;;;51.80;24.95;;;1.60;99.90;;;;;;5040783;28;20025;-75
2022/03/06 06:16:58;;;;;;;51.20;24.15;;;1.60;99.90;;;;;;5047004;28;20032;-77
2022/03/06 06:19:24;;;;;;;49.72;25.45;;;1.60;99.90;;;;;;5044617;28;20681;-76
2022/03/06 06:21:50;;;;;;;53.83;25.02;;;1.50;99.90;;;;;;5048900;28;20036;-75
2022/03/06 06:24:15;;;;;;;51.58;25.63;;;1.50;99.90;;;;;;5040788;28;20032;-75
2022/03/06 06:26:43;;;;;;;52.00;24.30;;;1.50;99.90;;;;;;5044481;28;20027;-75
2022/03/06 06:29:09;;;;;;;52.75;24.45;;;1.50;99.90;;;;;;5043236;28;20434;-75
2022/03/06 06:31:35;;;;;;;50.78;24.73;;;1.40;99.90;;;;;;5046382;28;20090;-77
2022/03/06 06:34:00;;;;;;;49.45;25.42;;;1.50;99.90;;;;;;5031505;28;20026;-76
2022/03/06 06:36:26;;;;;;;48.50;24.70;;;1.40;99.90;;;;;;5040604;28;20400;-75
2022/03/06 06:38:53;;;;;;;55.65;25.23;;;1.50;99.90;;;;;;5044073;28;20045;-75
2022/03/06 06:41:19;;;;;;;55.97;25.73;;;1.50;99.90;;;;;;5033610;28;20091;-75
2022/03/06 06:43:45;;;;;;;54.92;25.70;;;1.40;99.90;;;;;;5042900;28;20105;-75
2022/03/06 06:46:11;;;;;;;52.08;24.42;;;1.50;99.90;;;;;;5048474;28;20103;-75
2022/03/06 06:48:37;;;;;;;52.08;24.77;;;1.50;99.90;;;;;;5043957;28;20048;-76
2022/03/06 06:51:03;;;;;;;49.97;25.67;;;1.50;99.90;;;;;;5038807;28;20025;-75
2022/03/06 06:53:29;;;;;;;49.10;25.38;;;1.50;99.90;;;;;;5046408;28;20017;-75
2022/03/06 06:55:55;;;;;;;47.53;22.40;;;1.50;99.90;;;;;;5038036;28;20212;-75
2022/03/06 06:58:20;;;;;;;50.72;25.52;;;1.50;99.90;;;;;;5045220;28;20041;-75
2022/03/06 07:00:46;;;;;;;48.05;25.38;;;1.60;99.90;;;;;;5047362;28;20065;-75
2022/03/06 07:03:12;;;;;;;47.95;24.02;;;1.50;99.90;;;;;;5043543;28;20026;-76
2022/03/06 07:05:38;;;;;;;47.20;24.00;;;1.60;99.90;;;;;;5038863;28;20032;-75
2022/03/06 07:08:04;;;;;;;47.53;24.73;;;1.50;99.90;;;;;;5043250;28;20108;-75
2022/03/06 07:10:29;;;;;;;50.45;26.38;;;1.50;99.90;;;;;;5043959;28;20080;-76
2022/03/06 07:12:55;;;;;;;51.33;26.27;;;1.50;99.90;;;;;;5045158;28;20081;-76
2022/03/06 07:15:28;;;;;;;52.40;26.25;;;1.40;99.90;;;;;;5043387;28;20029;-78
2022/03/06 07:17:58;;;;;;;51.75;25.15;;;1.40;99.90;;;;;;5047046;28;20021;-77
2022/03/06 07:20:24;;;;;;;51.35;26.55;;;1.30;99.90;;;;;;5038547;28;20032;-76
2022/03/06 07:22:49;;;;;;;51.50;27.00;;;1.50;99.90;;;;;;5040261;28;20029;-79
2022/03/06 07:25:15;;;;;;;49.78;27.13;;;1.50;99.90;;;;;;5037946;28;20065;-79
2022/03/06 07:27:41;;;;;;;47.00;25.77;;;1.60;99.90;;;;;;5047609;28;20354;-79
2022/03/06 07:30:07;;;;;;;48.78;25.20;;;1.70;99.90;;;;;;5048006;28;20370;-79
2022/03/06 07:32:32;;;;;;;49.35;24.55;;;1.70;99.90;;;;;;5042309;28;20433;-79
2022/03/06 07:34:58;;;;;;;46.47;24.58;;;1.80;99.90;;;;;;5047738;28;20057;-79
2022/03/06 07:37:23;;;;;;;44.22;22.58;;;1.70;99.90;;;;;;5029304;28;20166;-79
2022/03/06 07:39:49;;;;;;;48.25;23.60;;;1.80;99.90;;;;;;5027246;28;20383;-79
2022/03/06 07:42:15;;;;;;;43.15;23.58;;;1.70;99.90;;;;;;5037058;28;20045;-79
2022/03/06 07:44:41;;;;;;;49.00;23.88;;;1.90;99.90;;;;;;5036107;28;20155;-78
2022/03/06 07:47:07;;;;;;;49.42;24.17;;;1.90;99.90;;;;;;5033628;28;20036;-79
2022/03/06 07:49:32;;;;;;;46.03;23.33;;;2.00;99.90;;;;;;5040386;28;20028;-79
2022/03/06 07:51:58;;;;;;;45.92;22.95;;;2.00;99.90;;;;;;5036777;28;20029;-79
2022/03/06 07:54:23;;;;;;;44.90;23.27;;;2.10;99.90;;;;;;5031035;28;20389;-79
2022/03/06 07:56:49;;;;;;;49.00;24.80;;;2.10;99.90;;;;;;5033902;28;20083;-79
2022/03/06 07:59:15;;;;;;;45.58;23.88;;;2.20;99.90;;;;;;5026895;28;20390;-79
2022/03/06 08:01:40;;;;;;;45.20;24.27;;;2.30;99.90;;;;;;5036204;28;20021;-80
2022/03/06 08:04:06;;;;;;;44.00;24.95;;;2.40;99.90;;;;;;5026332;28;20026;-79
2022/03/06 08:06:32;;;;;;;42.08;23.30;;;2.50;99.90;;;;;;5028645;28;20021;-77
2022/03/06 08:08:57;;;;;;;42.65;22.35;;;2.60;99.90;;;;;;5026222;28;20525;-78
2022/03/06 08:11:23;;;;;;;45.65;24.67;;;2.70;99.90;;;;;;5036663;28;20529;-77
2022/03/06 08:13:49;;;;;;;41.15;21.95;;;2.80;99.90;;;;;;5036274;28;20021;-80
2022/03/06 08:16:14;;;;;;;42.33;23.55;;;2.90;99.90;;;;;;5040230;28;20029;-74
2022/03/06 08:18:40;;;;;;;41.90;23.67;;;3.00;99.90;;;;;;5025022;28;20053;-74
2022/03/06 08:21:06;;;;;;;40.90;21.90;;;3.20;99.90;;;;;;5033023;28;20025;-75
2022/03/06 08:23:31;;;;;;;36.75;20.83;;;3.10;99.90;;;;;;5033582;28;20053;-77
2022/03/06 08:25:57;;;;;;;37.72;21.73;;;3.30;99.90;;;;;;5033241;28;20028;-80
2022/03/06 08:28:23;;;;;;;41.17;21.83;;;3.50;99.90;;;;;;5036674;28;20025;-76
2022/03/06 08:30:48;;;;;;;38.85;21.90;;;3.60;99.90;;;;;;5032891;28;20032;-78
2022/03/06 08:33:14;;;;;;;43.90;24.55;;;3.80;99.90;;;;;;5029997;28;20084;-78
2022/03/06 08:35:40;;;;;;;38.50;22.83;;;3.80;99.90;;;;;;5028183;28;20092;-78
2022/03/06 08:38:05;;;;;;;37.60;21.75;;;3.90;99.90;;;;;;5031196;28;20373;-76
2022/03/06 08:40:31;;;;;;;36.67;21.33;;;4.00;99.90;;;;;;5025946;28;20044;-77
2022/03/06 08:42:57;;;;;;;38.53;21.38;;;4.00;99.90;;;;;;5031830;28;20545;-76
2022/03/06 08:45:24;;;;;;;33.35;21.95;;;4.10;99.90;;;;;;5033948;28;20079;-78
2022/03/06 08:47:50;;;;;;;34.05;20.63;;;4.20;99.90;;;;;;5034533;28;20029;-81
2022/03/06 08:50:15;;;;;;;39.80;22.90;;;4.40;99.90;;;;;;5025486;28;20037;-78
2022/03/06 08:52:41;;;;;;;33.75;20.95;;;4.40;99.90;;;;;;5035958;28;20519;-78
2022/03/06 08:55:09;;;;;;;36.00;21.65;;;4.50;99.90;;;;;;5033376;28;20026;-78
2022/03/06 08:57:35;;;;;;;34.83;21.58;;;4.50;99.90;;;;;;5035087;28;20462;-79
2022/03/06 09:00:00;;;;;;;36.15;21.67;;;4.60;99.90;;;;;;5024834;28;20021;-78
2022/03/06 09:02:26;;;;;;;36.63;21.92;;;4.70;99.90;;;;;;5030431;28;21080;-78
2022/03/06 09:04:51;;;;;;;32.47;20.38;;;4.80;99.90;;;;;;5025298;28;20022;-76
2022/03/06 09:07:17;;;;;;;33.58;20.50;;;4.90;99.90;;;;;;5033236;28;20056;-75
2022/03/06 09:09:43;;;;;;;30.92;20.92;;;4.90;99.90;;;;;;5027838;28;20021;-77
2022/03/06 09:12:08;;;;;;;34.13;21.15;;;4.90;99.90;;;;;;5030232;28;20123;-78
2022/03/06 09:14:34;;;;;;;30.10;19.27;;;5.00;99.90;;;;;;5029947;28;20109;-79
2022/03/06 09:17:00;;;;;;;34.40;21.75;;;5.00;99.90;;;;;;5027981;28;20041;-77
2022/03/06 09:19:25;;;;;;;31.50;20.17;;;5.20;99.90;;;;;;5025551;28;20022;-78
2022/03/06 09:21:51;;;;;;;29.58;19.83;;;5.40;99.90;;;;;;5034619;28;20065;-77
2022/03/06 09:24:17;;;;;;;31.73;19.63;;;5.50;99.90;;;;;;5025962;28;20594;-78
2022/03/06 09:26:43;;;;;;;31.52;20.30;;;5.60;99.90;;;;;;5035032;28;20080;-78
2022/03/06 09:29:08;;;;;;;32.25;20.48;;;5.80;99.90;;;;;;5041799;28;20099;-78
2022/03/06 09:31:34;;;;;;;28.58;18.27;;;5.80;99.90;;;;;;5030221;28;20525;-77
2022/03/06 09:34:00;;;;;;;32.85;20.83;;;5.70;99.90;;;;;;5042766;28;20108;-76
2022/03/06 09:36:26;;;;;;;33.50;20.17;;;5.90;99.90;;;;;;5034123;28;20033;-76
2022/03/06 09:38:51;;;;;;;34.78;20.75;;;5.90;99.90;;;;;;5031422;28;20053;-77
2022/03/06 09:41:24;;;;;;;28.75;19.75;;;6.00;99.90;;;;;;5042314;28;20117;-77
2022/03/06 09:43:53;;;;;;;29.67;19.42;;;6.20;99.90;;;;;;5052316;28;20021;-76
2022/03/06 09:46:20;;;;;;;31.38;19.55;;;6.30;99.90;;;;;;5043226;28;20465;-78
2022/03/06 09:48:47;;;;;;;23.88;17.95;;;6.50;99.90;;;;;;5040704;28;20110;-77
2022/03/06 09:51:12;;;;;;;27.88;18.88;;;6.30;99.90;;;;;;5038335;28;20030;-77
2022/03/06 09:53:38;;;;;;;27.15;19.23;;;6.40;99.90;;;;;;5032147;28;20080;-77
2022/03/06 09:56:04;;;;;;;29.88;20.15;;;6.60;99.90;;;;;;5033275;28;20043;-76
2022/03/06 09:58:30;;;;;;;25.77;18.65;;;6.70;99.90;;;;;;5031783;28;20096;-77
2022/03/06 10:00:57;;;;;;;26.33;17.45;;;6.60;99.90;;;;;;5037912;28;20038;-76
2022/03/06 10:03:23;;;;;;;24.58;15.95;;;6.80;99.90;;;;;;5042323;28;20045;-78
2022/03/06 10:05:50;;;;;;;23.20;16.77;;;6.80;99.90;;;;;;5042031;28;20021;-78
2022/03/06 10:08:29;;;;;;;26.75;17.15;;;6.60;99.90;;;;;;5035038;28;20025;-76
2022/03/06 10:10:57;;;;;;;25.13;17.33;;;6.70;99.90;;;;;;5043547;28;20029;-76
2022/03/06 10:13:24;;;;;;;23.02;15.52;;;6.90;99.90;;;;;;5039229;28;20024;-76
2022/03/06 10:16:20;;;;;;;21.85;15.90;;;7.10;99.90;;;;;;5042976;28;20108;-79
2022/03/06 10:18:56;;;;;;;25.23;16.17;;;7.20;99.90;;;;;;5044124;28;20080;-79
2022/03/06 10:21:33;;;;;;;25.48;16.40;;;7.30;99.90;;;;;;5034083;28;20070;-78
2022/03/06 10:24:06;;;;;;;21.45;15.95;;;7.40;99.90;;;;;;5042988;28;20061;-78
2022/03/06 10:26:35;;;;;;;24.10;15.63;;;7.40;99.90;;;;;;5046420;28;20540;-77
2022/03/06 10:29:09;;;;;;;23.92;15.68;;;7.40;99.90;;;;;;5042443;28;20055;-78
2022/03/06 10:31:35;;;;;;;22.40;15.35;;;7.30;99.90;;;;;;5024570;28;20402;-79
2022/03/06 10:34:11;;;;;;;21.48;15.48;;;7.50;99.90;;;;;;5034842;28;20021;-79
2022/03/06 10:36:41;;;;;;;27.65;17.55;;;7.60;99.90;;;;;;5031479;28;20042;-76
2022/03/06 10:39:18;;;;;;;24.42;15.88;;;7.70;99.90;;;;;;5031695;28;20026;-77
2022/03/06 10:41:47;;;;;;;25.13;17.92;;;7.80;99.90;;;;;;5034254;28;20056;-76
2022/03/06 10:44:15;;;;;;;21.05;17.05;;;7.80;99.90;;;;;;5031619;28;20112;-78
2022/03/06 10:46:41;;;;;;;21.52;15.32;;;7.80;99.90;;;;;;5035578;28;20469;-78
2022/03/06 10:49:17;;;;;;;20.98;15.00;;;7.80;99.70;;;;;;5034737;28;20482;-78
2022/03/06 10:51:48;;;;;;;21.02;14.90;;;7.70;99.50;;;;;;5027354;28;20026;-79
2022/03/06 10:54:15;;;;;;;20.25;14.70;;;7.80;99.20;;;;;;5034680;28;20025;-78
2022/03/06 10:56:48;;;;;;;21.88;15.82;;;7.70;99.10;;;;;;5046195;28;20040;-79
2022/03/06 10:59:21;;;;;;;23.02;14.35;;;7.90;99.40;;;;;;5034928;28;20100;-78
2022/03/06 11:01:48;;;;;;;25.45;15.80;;;7.90;99.90;;;;;;5034010;28;20030;-79
2022/03/06 11:04:17;;;;;;;20.65;14.57;;;8.00;99.60;;;;;;5035626;28;20017;-82
2022/03/06 11:06:43;;;;;;;21.77;14.55;;;8.00;99.00;;;;;;5033629;28;20026;-83
2022/03/06 11:09:16;;;;;;;22.70;15.75;;;8.00;99.30;;;;;;5030951;28;20048;-80
2022/03/06 11:11:48;;;;;;;21.15;15.95;;;8.10;98.50;;;;;;5025307;28;20013;-80
2022/03/06 11:14:14;;;;;;;22.20;16.13;;;8.00;99.00;;;;;;5030261;28;20083;-83
2022/03/06 11:16:41;;;;;;;23.20;15.90;;;8.00;99.10;;;;;;5036335;28;20478;-83
2022/03/06 11:19:07;;;;;;;22.50;16.02;;;8.10;99.30;;;;;;5028839;28;20021;-83
2022/03/06 11:21:35;;;;;;;25.08;16.20;;;8.20;98.90;;;;;;5035136;28;20382;-77
2022/03/06 11:24:21;;;;;;;22.85;16.40;;;8.40;98.70;;;;;;5023135;28;20382;-78
2022/03/06 11:27:25;;;;;;;25.27;17.02;;;8.40;99.40;;;;;;5035023;28;20022;-78
2022/03/06 11:30:08;;;;;;;22.67;16.42;;;8.50;98.70;;;;;;5022487;28;20034;-77
2022/03/06 11:32:39;;;;;;;21.83;15.18;;;8.50;99.00;;;;;;5039138;28;20429;-79
2022/03/06 11:35:15;;;;;;;22.17;15.90;;;8.50;98.20;;;;;;5034504;28;20028;-77
2022/03/06 11:37:49;;;;;;;25.60;16.33;;;8.60;98.50;;;;;;5026828;28;20036;-76
2022/03/06 11:40:34;;;;;;;20.83;15.48;;;8.50;97.90;;;;;;5029278;28;20028;-76
2022/03/06 11:42:59;;;;;;;23.48;15.30;;;8.60;98.20;;;;;;5030731;28;20542;-77
2022/03/06 11:45:47;;;;;;;22.65;16.75;;;8.50;98.20;;;;;;5035117;28;20029;-77
2022/03/06 11:48:32;;;;;;;26.13;15.95;;;8.60;98.20;;;;;;5030192;28;20033;-76
2022/03/06 11:51:22;;;;;;;22.38;16.00;;;8.70;98.00;;;;;;5034867;28;20473;-76
2022/03/06 11:54:14;;;;;;;20.35;15.52;;;8.70;97.70;;;;;;5021414;28;20025;-79
2022/03/06 11:56:46;;;;;;;21.65;15.15;;;8.80;97.90;;;;;;5036461;28;20029;-77
2022/03/06 11:59:17;;;;;;;22.98;16.25;;;8.80;97.70;;;;;;5029770;28;20030;-77
2022/03/06 12:02:05;;;;;;;22.08;15.75;;;8.60;97.60;;;;;;5028431;28;20500;-78
2022/03/06 12:04:46;;;;;;;19.35;14.40;;;8.50;97.70;;;;;;5027369;28;20501;-80
2022/03/06 12:07:13;;;;;;;22.02;16.17;;;8.60;98.30;;;;;;5038620;28;20492;-80
2022/03/06 12:09:42;;;;;;;19.92;15.02;;;8.70;97.90;;;;;;5034924;28;20025;-81
2022/03/06 12:12:10;;;;;;;24.75;18.58;;;8.80;98.80;;;;;;5034179;28;20030;-79
2022/03/06 12:14:39;;;;;;;23.13;17.95;;;8.80;98.60;;;;;;5031317;28;20083;-79
2022/03/06 12:17:07;;;;;;;21.27;16.40;;;8.70;97.70;;;;;;5027052;28;20037;-78
2022/03/06 12:19:37;;;;;;;21.65;16.88;;;8.80;98.70;;;;;;5039322;28;20022;-78
2022/03/06 12:22:36;;;;;;;21.02;15.35;;;8.80;98.50;;;;;;5031200;28;20513;-79
2022/03/06 12:25:08;;;;;;;23.30;15.65;;;8.70;97.70;;;;;;5033078;28;20060;-80
2022/03/06 12:27:35;;;;;;;;;;;9.10;98.10;;;;;;5039090;28;20017;-75
2022/03/06 12:30:04;;;;;;;19.85;15.52;;;8.90;97.00;;;;;;5038669;28;20345;-79
2022/03/06 12:32:31;;;;;;;21.15;16.55;;;9.20;97.50;;;;;;5036946;28;20053;-77
2022/03/06 12:34:57;;;;;;;22.23;15.63;;;9.20;96.80;;;;;;5028763;28;20457;-78
2022/03/06 12:37:27;;;;;;;19.80;13.63;;;8.80;95.80;;;;;;5038475;28;20047;-77
2022/03/06 12:39:54;;;;;;;21.45;15.05;;;9.00;96.70;;;;;;5034808;28;20014;-77